createdAt,value
2023-01-13T00:01:21.733Z,8.63
2023-01-13T00:03:48.875Z,8.69
2023-01-13T00:06:17.720Z,8.32
2023-01-13T00:08:44.618Z,8.40
2023-01-13T00:11:11.339Z,8.89
2023-01-13T00:13:38.842Z,8.81
2023-01-13T00:16:08.149Z,8.83
2023-01-13T00:18:36.952Z,8.73
2023-01-13T00:21:07.826Z,8.65
2023-01-13T00:23:35.436Z,8.58
2023-01-13T00:26:05.290Z,8.88
2023-01-13T00:28:32.504Z,9.06
2023-01-13T00:31:11.659Z,8.76
2023-01-13T00:33:39.239Z,8.54
2023-01-13T00:36:07.611Z,8.63
2023-01-13T00:38:35.972Z,8.48
2023-01-13T00:41:07.678Z,8.55
2023-01-13T00:43:35.985Z,9.21
2023-01-13T00:46:03.881Z,9.51
2023-01-13T00:48:32.539Z,9.26
2023-01-13T00:51:08.016Z,8.84
2023-01-13T00:53:37.386Z,9.11
2023-01-13T00:56:05.463Z,9.34
2023-01-13T00:58:34.086Z,9.04
2023-01-13T01:01:02.336Z,9.49
2023-01-13T01:03:29.739Z,9.40
2023-01-13T01:05:57.567Z,9.16
2023-01-13T01:08:24.274Z,9.16
2023-01-13T01:11:00.867Z,9.28
2023-01-13T01:13:27.674Z,9.46
2023-01-13T01:15:54.362Z,9.11
2023-01-13T01:18:21.107Z,8.87
2023-01-13T01:20:47.790Z,9.20
2023-01-13T01:23:14.687Z,9.28
2023-01-13T01:25:41.430Z,9.55
2023-01-13T01:28:08.132Z,9.23
2023-01-13T01:30:34.756Z,9.41
2023-01-13T01:33:03.218Z,9.13
2023-01-13T01:35:29.990Z,9.10
2023-01-13T01:37:56.829Z,9.56
2023-01-13T01:40:23.543Z,9.65
2023-01-13T01:43:08.417Z,9.57
2023-01-13T01:45:35.375Z,9.78
2023-01-13T01:48:06.037Z,9.43
2023-01-13T01:50:33.583Z,9.10
2023-01-13T01:53:10.243Z,9.45
2023-01-13T01:55:38.276Z,9.32
2023-01-13T01:58:15.815Z,9.33
2023-01-13T02:00:42.965Z,9.11
2023-01-13T02:03:11.061Z,9.44
2023-01-13T02:05:38.973Z,9.27
2023-01-13T02:08:07.985Z,9.45
2023-01-13T02:10:35.049Z,9.33
2023-01-13T02:13:06.328Z,8.93
2023-01-13T02:15:43.092Z,8.89
2023-01-13T02:18:31.521Z,8.76
2023-01-13T02:21:22.695Z,9.01
2023-01-13T02:24:32.960Z,8.83
2023-01-13T02:27:11.869Z,9.01
2023-01-13T02:30:19.389Z,9.15
2023-01-13T02:33:04.788Z,8.63
2023-01-13T02:35:37.412Z,8.49
2023-01-13T02:38:05.959Z,8.97
2023-01-13T02:40:41.363Z,9.12
2023-01-13T02:43:33.289Z,8.80
2023-01-13T02:46:15.771Z,8.89
2023-01-13T02:48:45.608Z,9.05
2023-01-13T02:51:16.100Z,9.04
2023-01-13T02:54:18.214Z,9.06
2023-01-13T02:56:48.727Z,8.54
2023-01-13T02:59:15.734Z,8.85
2023-01-13T03:01:43.340Z,8.75
2023-01-13T03:04:34.539Z,9.01
2023-01-13T03:07:21.216Z,8.90
2023-01-13T03:10:17.732Z,8.93
2023-01-13T03:12:48.681Z,8.64
2023-01-13T03:15:40.411Z,8.74
2023-01-13T03:18:19.047Z,8.76
2023-01-13T03:21:01.473Z,8.43
2023-01-13T03:23:51.930Z,8.16
2023-01-13T03:26:44.104Z,8.69
2023-01-13T03:29:54.098Z,8.76
2023-01-13T03:32:28.760Z,8.47
2023-01-13T03:35:15.897Z,8.83
2023-01-13T03:38:18.021Z,8.53
2023-01-13T03:40:51.354Z,9.20
2023-01-13T03:43:51.236Z,8.53
2023-01-13T03:46:26.794Z,8.95
2023-01-13T03:48:58.099Z,8.69
2023-01-13T03:51:29.338Z,8.81
2023-01-13T03:54:01.337Z,9.02
2023-01-13T03:56:42.630Z,8.37
2023-01-13T03:59:16.756Z,8.79
2023-01-13T04:01:46.426Z,8.59
2023-01-13T04:04:27.033Z,8.83
2023-01-13T04:07:00.242Z,9.03
2023-01-13T04:09:52.694Z,8.76
2023-01-13T04:12:54.774Z,8.95
2023-01-13T04:15:24.891Z,8.80
2023-01-13T04:17:52.103Z,8.85
2023-01-13T04:20:19.110Z,8.94
2023-01-13T04:22:45.834Z,8.78
2023-01-13T04:25:12.924Z,8.49
2023-01-13T04:27:39.570Z,8.43
2023-01-13T04:30:06.991Z,8.36
2023-01-13T04:32:33.849Z,8.91
2023-01-13T04:35:00.603Z,9.11
2023-01-13T04:37:27.519Z,8.29
2023-01-13T04:39:54.296Z,8.65
2023-01-13T04:42:20.998Z,8.11
2023-01-13T04:44:48.040Z,8.49
2023-01-13T04:47:14.771Z,8.39
2023-01-13T04:49:41.625Z,8.83
2023-01-13T04:52:08.374Z,8.35
2023-01-13T04:54:35.239Z,8.13
2023-01-13T04:57:02.014Z,8.27
2023-01-13T04:59:28.845Z,8.45
2023-01-13T05:01:55.831Z,8.39
2023-01-13T05:04:22.705Z,8.90
2023-01-13T05:06:49.655Z,8.87
2023-01-13T05:09:16.422Z,9.04
2023-01-13T05:12:02.001Z,8.97
2023-01-13T05:14:47.396Z,8.85
2023-01-13T05:17:20.587Z,8.80
2023-01-13T05:19:47.705Z,9.43
2023-01-13T05:22:33.749Z,9.58
2023-01-13T05:25:19.074Z,9.49
2023-01-13T05:27:45.836Z,9.60
2023-01-13T05:30:12.816Z,9.51
2023-01-13T05:32:39.724Z,9.77
2023-01-13T05:35:06.636Z,9.84
2023-01-13T05:37:33.499Z,9.48
2023-01-13T05:40:18.603Z,9.70
2023-01-13T05:43:04.394Z,9.95
2023-01-13T05:45:31.754Z,9.42
2023-01-13T05:47:58.847Z,9.51
2023-01-13T05:50:25.711Z,9.21
2023-01-13T05:52:52.439Z,9.48
2023-01-13T05:55:19.380Z,9.70
2023-01-13T05:57:46.182Z,9.17
2023-01-13T06:00:13.572Z,9.40
2023-01-13T06:02:40.348Z,9.21
2023-01-13T06:05:07.859Z,9.32
2023-01-13T06:07:34.658Z,9.10
2023-01-13T06:10:01.385Z,9.43
2023-01-13T06:12:29.026Z,9.54
2023-01-13T06:14:55.749Z,9.50
2023-01-13T06:17:22.711Z,9.09
2023-01-13T06:19:49.506Z,9.45
2023-01-13T06:22:26.777Z,9.34
2023-01-13T06:24:54.515Z,9.20
2023-01-13T06:27:22.451Z,8.87
2023-01-13T06:29:49.125Z,8.69
2023-01-13T06:32:19.596Z,8.97
2023-01-13T06:34:53.328Z,9.06
2023-01-13T06:37:25.398Z,9.48
2023-01-13T06:39:58.269Z,9.28
2023-01-13T06:42:47.319Z,9.50
2023-01-13T06:45:14.451Z,9.55
2023-01-13T06:47:41.613Z,9.89
2023-01-13T06:50:09.214Z,9.11
2023-01-13T06:52:35.943Z,9.06
2023-01-13T06:55:03.339Z,9.11
2023-01-13T06:57:30.097Z,9.54
2023-01-13T06:59:56.880Z,9.27
2023-01-13T07:02:23.852Z,9.48
2023-01-13T07:04:50.650Z,8.96
2023-01-13T07:07:17.371Z,9.22
2023-01-13T07:09:44.050Z,9.29
2023-01-13T07:12:12.021Z,8.90
2023-01-13T07:14:57.634Z,9.33
2023-01-13T07:17:25.509Z,9.39
2023-01-13T07:19:53.231Z,9.36
2023-01-13T07:22:20.168Z,9.21
2023-01-13T07:24:47.011Z,9.61
2023-01-13T07:27:13.701Z,9.80
2023-01-13T07:29:40.626Z,10.05
2023-01-13T07:32:07.997Z,9.61
2023-01-13T07:34:34.793Z,9.45
2023-01-13T07:37:01.974Z,9.56
2023-01-13T07:39:28.902Z,9.17
2023-01-13T07:42:14.142Z,9.83
2023-01-13T07:44:40.964Z,9.53
2023-01-13T07:47:10.467Z,10.07
2023-01-13T07:49:37.432Z,10.08
2023-01-13T07:54:49.734Z,9.92
2023-01-13T07:57:16.430Z,9.62
2023-01-13T07:59:43.199Z,10.12
2023-01-13T08:02:13.951Z,10.01
2023-01-13T08:04:40.946Z,9.84
2023-01-13T08:07:08.095Z,10.05
2023-01-13T08:09:34.905Z,10.35
2023-01-13T08:12:20.041Z,10.47
2023-01-13T08:14:46.834Z,10.45
2023-01-13T08:17:13.572Z,9.53
2023-01-13T08:19:40.374Z,9.68
2023-01-13T08:22:07.226Z,9.72
2023-01-13T08:24:34.026Z,9.90
2023-01-13T08:27:00.734Z,9.91
2023-01-13T08:29:27.613Z,9.57
2023-01-13T08:31:54.394Z,9.74
2023-01-13T08:34:21.295Z,9.83
2023-01-13T08:36:49.979Z,10.37
2023-01-13T08:39:16.717Z,10.34
2023-01-13T08:41:56.699Z,9.97
2023-01-13T08:44:27.443Z,10.69
2023-01-13T08:46:54.751Z,10.39
2023-01-13T08:49:22.727Z,11.20
2023-01-13T08:51:50.268Z,11.50
2023-01-13T08:54:18.126Z,12.04
2023-01-13T08:56:45.958Z,12.12
2023-01-13T08:59:18.111Z,12.54
2023-01-13T09:01:45.810Z,12.62
2023-01-13T09:04:18.508Z,12.53
2023-01-13T09:06:46.299Z,12.05
2023-01-13T09:09:13.253Z,11.88
2023-01-13T09:12:04.271Z,12.08
2023-01-13T09:14:33.180Z,12.63
2023-01-13T09:17:00.270Z,12.29
2023-01-13T09:19:28.245Z,12.52
2023-01-13T09:21:56.296Z,12.49
2023-01-13T09:24:25.412Z,12.42
2023-01-13T09:26:53.167Z,12.41
2023-01-13T09:29:20.087Z,11.96
2023-01-13T09:31:46.823Z,11.93
2023-01-13T09:34:35.951Z,11.56
2023-01-13T09:37:03.655Z,11.75
2023-01-13T09:39:30.460Z,11.30
2023-01-13T09:42:21.203Z,11.95
2023-01-13T09:44:57.781Z,11.84
2023-01-13T09:48:06.521Z,11.55
2023-01-13T09:50:52.547Z,11.65
2023-01-13T09:53:32.465Z,11.84
2023-01-13T09:56:00.033Z,11.81
2023-01-13T09:58:27.268Z,11.85
2023-01-13T10:01:21.113Z,11.98
2023-01-13T10:03:49.486Z,11.51
2023-01-13T10:06:34.883Z,11.38
2023-01-13T10:09:02.105Z,11.27
2023-01-13T10:12:13.698Z,11.04
2023-01-13T10:14:54.924Z,11.04
2023-01-13T10:17:34.134Z,11.62
2023-01-13T10:20:15.958Z,11.62
2023-01-13T10:23:06.728Z,12.15
2023-01-13T10:25:39.398Z,12.43
2023-01-13T10:28:12.059Z,12.40
2023-01-13T10:30:42.413Z,12.41
2023-01-13T10:33:18.081Z,12.33
2023-01-13T10:35:57.035Z,12.08
2023-01-13T10:38:34.370Z,12.01
2023-01-13T10:41:04.751Z,11.61
2023-01-13T10:43:31.671Z,12.08
2023-01-13T10:46:07.673Z,12.08
2023-01-13T10:49:02.467Z,12.22
2023-01-13T10:51:33.088Z,11.80
2023-01-13T10:54:14.143Z,11.89
2023-01-13T10:56:43.457Z,12.01
2023-01-13T10:59:17.548Z,12.01
2023-01-13T11:02:13.080Z,12.20
2023-01-13T11:04:55.780Z,12.25
2023-01-13T11:07:22.636Z,12.20
2023-01-13T11:10:01.369Z,12.43
2023-01-13T11:12:34.169Z,12.74
2023-01-13T11:15:07.722Z,12.35
2023-01-13T11:17:40.861Z,12.74
2023-01-13T11:20:32.501Z,12.33
2023-01-13T11:23:06.942Z,12.47
2023-01-13T11:25:43.470Z,12.14
2023-01-13T11:28:25.667Z,12.65
2023-01-13T11:31:07.007Z,12.78
2023-01-13T11:34:01.336Z,12.74
2023-01-13T11:36:40.340Z,12.21
2023-01-13T11:39:42.248Z,12.01
2023-01-13T11:42:21.403Z,12.11
2023-01-13T11:45:07.210Z,12.04
2023-01-13T11:47:36.184Z,12.44
2023-01-13T11:50:03.670Z,12.33
2023-01-13T11:52:57.306Z,12.02
2023-01-13T11:55:23.992Z,12.00
2023-01-13T11:57:50.763Z,12.21
2023-01-13T12:00:32.723Z,12.02
2023-01-13T12:03:05.582Z,12.62
2023-01-13T12:05:44.689Z,12.22
2023-01-13T12:08:18.711Z,12.26
2023-01-13T12:10:57.479Z,12.61
2023-01-13T12:13:36.955Z,12.26
2023-01-13T12:16:25.463Z,11.84
2023-01-13T12:19:30.256Z,11.51
2023-01-13T12:22:01.902Z,11.64
2023-01-13T12:24:35.208Z,11.34
2023-01-13T12:27:10.374Z,12.04
2023-01-13T12:29:38.880Z,11.77
2023-01-13T12:32:12.685Z,11.60
2023-01-13T12:34:49.796Z,12.04
2023-01-13T12:37:35.422Z,12.13
2023-01-13T12:40:59.447Z,11.94
2023-01-13T12:43:44.962Z,12.35
2023-01-13T12:46:23.555Z,12.38
2023-01-13T12:49:01.950Z,12.31
2023-01-13T12:51:35.778Z,11.57
2023-01-13T12:54:23.522Z,11.91
2023-01-13T12:56:50.704Z,12.18
2023-01-13T12:59:17.530Z,12.04
2023-01-13T13:01:46.063Z,12.48
2023-01-13T13:04:17.189Z,12.26
2023-01-13T13:06:52.559Z,12.51
2023-01-13T13:09:31.656Z,12.43
2023-01-13T13:11:58.632Z,12.21
2023-01-13T13:14:54.766Z,12.38
2023-01-13T13:17:31.689Z,12.68
2023-01-13T13:20:01.421Z,12.46
2023-01-13T13:22:28.152Z,12.55
2023-01-13T13:24:54.860Z,12.29
2023-01-13T13:27:24.304Z,12.29
2023-01-13T13:30:28.809Z,12.39
2023-01-13T13:33:39.229Z,13.07
2023-01-13T13:36:06.143Z,12.58
2023-01-13T13:39:19.220Z,12.72
2023-01-13T13:42:09.212Z,11.79
2023-01-13T13:45:06.269Z,12.42
2023-01-13T13:47:37.773Z,12.46
2023-01-13T13:50:20.837Z,12.37
2023-01-13T13:52:55.208Z,12.64
2023-01-13T13:55:25.757Z,12.99
2023-01-13T13:57:55.196Z,13.05
2023-01-13T14:00:30.190Z,12.46
2023-01-13T14:03:01.603Z,12.86
2023-01-13T14:05:29.771Z,12.59
2023-01-13T14:08:16.047Z,12.61
2023-01-13T14:10:45.120Z,12.89
2023-01-13T14:13:25.819Z,12.76
2023-01-13T14:16:04.788Z,12.99
2023-01-13T14:18:42.036Z,12.87
2023-01-13T14:21:23.607Z,12.86
2023-01-13T14:23:59.137Z,13.01
2023-01-13T14:26:29.000Z,12.92
2023-01-13T14:28:57.769Z,12.91
2023-01-13T14:31:25.107Z,13.01
2023-01-13T14:33:54.841Z,12.93
2023-01-13T14:36:33.773Z,12.80
2023-01-13T14:39:03.440Z,12.94
2023-01-13T14:41:38.014Z,12.94
2023-01-13T14:44:35.065Z,12.94
2023-01-13T14:47:05.376Z,12.98
2023-01-13T14:49:32.259Z,12.64
2023-01-13T14:52:12.563Z,12.76
2023-01-13T14:54:50.115Z,12.49
2023-01-13T14:57:29.726Z,12.42
2023-01-13T14:59:59.330Z,12.36
2023-01-13T15:02:29.186Z,12.30
2023-01-13T15:05:18.956Z,12.55
2023-01-13T15:07:59.390Z,12.58
2023-01-13T15:10:32.682Z,12.57
2023-01-13T15:13:03.662Z,12.65
2023-01-13T15:15:33.528Z,12.48
2023-01-13T15:18:01.794Z,12.11
2023-01-13T15:20:29.063Z,12.20
2023-01-13T15:22:58.683Z,11.88
2023-01-13T15:25:25.601Z,11.34
2023-01-13T15:27:53.092Z,11.49
2023-01-13T15:30:25.088Z,12.08
2023-01-13T15:32:54.947Z,11.94
2023-01-13T15:35:24.003Z,11.71
2023-01-13T15:37:51.698Z,11.80
2023-01-13T15:40:31.693Z,12.07
2023-01-13T15:43:17.120Z,12.44
2023-01-13T15:46:02.812Z,11.56
2023-01-13T15:48:32.151Z,11.33
2023-01-13T15:51:00.138Z,11.94
2023-01-13T15:53:28.015Z,12.18
2023-01-13T15:55:57.765Z,12.08
2023-01-13T15:58:28.282Z,12.00
2023-01-13T16:00:55.631Z,11.65
2023-01-13T16:03:22.688Z,11.70
2023-01-13T16:05:50.542Z,11.80
2023-01-13T16:08:19.303Z,10.75
2023-01-13T16:10:46.778Z,11.30
2023-01-13T16:13:14.886Z,11.85
2023-01-13T16:15:48.149Z,11.84
2023-01-13T16:18:24.424Z,12.23
2023-01-13T16:20:55.256Z,11.58
2023-01-13T16:23:23.194Z,11.38
2023-01-13T16:25:50.566Z,11.15
2023-01-13T16:28:24.025Z,10.79
2023-01-13T16:30:51.435Z,10.91
2023-01-13T16:33:18.278Z,10.74
2023-01-13T16:36:10.687Z,11.44
2023-01-13T16:38:32.001Z,11.79
2023-01-13T16:40:58.790Z,11.72
2023-01-13T16:43:27.856Z,11.32
2023-01-13T16:45:54.706Z,11.76
2023-01-13T16:48:22.824Z,10.99
2023-01-13T16:50:49.668Z,11.26
2023-01-13T16:53:16.767Z,11.49
2023-01-13T16:55:44.607Z,11.78
2023-01-13T16:58:20.129Z,11.51
2023-01-13T17:00:47.850Z,11.41
2023-01-13T17:03:15.698Z,10.88
2023-01-13T17:05:44.694Z,11.35
2023-01-13T17:08:17.722Z,11.19
2023-01-13T17:10:47.875Z,11.36
2023-01-13T17:13:16.652Z,11.42
2023-01-13T17:15:45.240Z,11.43
2023-01-13T17:18:13.517Z,11.60
2023-01-13T17:20:41.063Z,11.44
2023-01-13T17:23:07.913Z,10.65
2023-01-13T17:25:34.847Z,10.78
2023-01-13T17:28:01.558Z,11.17
2023-01-13T17:30:28.327Z,11.49
2023-01-13T17:32:55.158Z,11.85
2023-01-13T17:35:24.895Z,11.48
2023-01-13T17:37:53.299Z,11.38
2023-01-13T17:40:20.466Z,11.17
2023-01-13T17:42:47.327Z,11.51
2023-01-13T17:45:14.120Z,11.22
2023-01-13T17:47:41.012Z,11.53
2023-01-13T17:50:08.215Z,11.41
2023-01-13T17:52:35.182Z,11.27
2023-01-13T17:55:02.017Z,10.43
2023-01-13T17:57:28.929Z,11.07
2023-01-13T17:59:58.243Z,10.82
2023-01-13T18:02:26.225Z,10.97
2023-01-13T18:04:53.168Z,10.59
2023-01-13T18:07:20.006Z,11.06
2023-01-13T18:09:48.055Z,10.59
2023-01-13T18:12:15.056Z,11.20
2023-01-13T18:14:41.866Z,11.16
2023-01-13T18:17:08.606Z,11.39
2023-01-13T18:19:54.031Z,10.81
2023-01-13T18:22:39.228Z,11.11
2023-01-13T18:25:29.667Z,11.09
2023-01-13T18:27:57.104Z,11.09
2023-01-13T18:30:23.797Z,10.57
2023-01-13T18:32:50.509Z,10.50
2023-01-13T18:35:17.616Z,11.09
2023-01-13T18:37:44.416Z,11.37
2023-01-13T18:40:13.799Z,11.23
2023-01-13T18:42:54.596Z,11.22
2023-01-13T18:45:26.743Z,10.66
2023-01-13T18:47:55.186Z,10.88
2023-01-13T18:50:23.059Z,11.26
2023-01-13T18:52:50.309Z,11.44
2023-01-13T18:55:17.567Z,10.86
2023-01-13T18:57:44.753Z,10.90
2023-01-13T19:00:14.848Z,11.22
2023-01-13T19:02:41.740Z,11.46
2023-01-13T19:05:08.801Z,11.29
2023-01-13T19:07:36.418Z,10.81
2023-01-13T19:10:04.899Z,10.44
2023-01-13T19:12:34.064Z,10.46
2023-01-13T19:15:01.941Z,11.00
2023-01-13T19:17:34.361Z,11.35
2023-01-13T19:20:01.527Z,11.48
2023-01-13T19:22:33.490Z,11.75
2023-01-13T19:25:01.913Z,10.86
2023-01-13T19:27:29.209Z,11.16
2023-01-13T19:29:58.766Z,11.53
2023-01-13T19:32:25.950Z,11.58
2023-01-13T19:34:55.037Z,11.67
2023-01-13T19:37:22.074Z,11.50
2023-01-13T19:39:48.934Z,11.02
2023-01-13T19:42:34.512Z,11.23
2023-01-13T19:45:19.839Z,11.57
2023-01-13T19:47:47.067Z,11.80
2023-01-13T19:50:14.339Z,11.55
2023-01-13T19:52:44.654Z,11.31
2023-01-13T19:55:12.487Z,11.04
2023-01-13T19:57:40.228Z,11.48
2023-01-13T20:00:08.476Z,11.88
2023-01-13T20:02:47.824Z,11.70
2023-01-13T20:05:18.242Z,11.88
2023-01-13T20:07:45.041Z,11.86
2023-01-13T20:10:13.330Z,11.82
2023-01-13T20:12:41.684Z,10.81
2023-01-13T20:15:12.094Z,10.90
2023-01-13T20:17:40.504Z,11.29
2023-01-13T20:20:09.043Z,11.13
2023-01-13T20:22:37.515Z,11.46
2023-01-13T20:25:05.174Z,11.47
2023-01-13T20:27:31.921Z,11.39
2023-01-13T20:29:59.147Z,11.46
2023-01-13T20:32:25.925Z,11.61
2023-01-13T20:34:52.913Z,11.15
2023-01-13T20:37:19.587Z,11.71
2023-01-13T20:39:46.957Z,11.89
2023-01-13T20:42:46.398Z,11.85
2023-01-13T20:45:18.090Z,11.63
2023-01-13T20:47:45.209Z,11.20
2023-01-13T20:50:12.665Z,11.68
2023-01-13T20:52:39.449Z,11.41
2023-01-13T20:55:07.517Z,11.24
2023-01-13T20:57:35.103Z,10.76
2023-01-13T21:00:02.983Z,11.15
2023-01-13T21:02:30.163Z,11.11
2023-01-13T21:04:57.005Z,10.63
2023-01-13T21:07:24.167Z,11.36
2023-01-13T21:09:51.015Z,11.35
2023-01-13T21:12:36.194Z,11.04
2023-01-13T21:15:29.668Z,11.35
2023-01-13T21:18:15.174Z,11.88
2023-01-13T21:20:42.192Z,11.70
2023-01-13T21:23:10.935Z,10.84
2023-01-13T21:25:39.771Z,11.02
2023-01-13T21:28:07.654Z,11.41
2023-01-13T21:30:34.938Z,11.07
2023-01-13T21:33:04.009Z,11.43
2023-01-13T21:35:31.018Z,11.57
2023-01-13T21:37:57.970Z,11.06
2023-01-13T21:40:24.771Z,11.16
2023-01-13T21:43:10.319Z,10.43
2023-01-13T21:45:57.924Z,11.18
2023-01-13T21:48:24.770Z,11.17
2023-01-13T21:50:51.534Z,11.48
2023-01-13T21:53:18.457Z,11.66
2023-01-13T21:55:45.188Z,11.70
2023-01-13T21:58:14.819Z,11.63
2023-01-13T22:00:43.841Z,11.79
2023-01-13T22:03:12.536Z,11.65
2023-01-13T22:05:39.745Z,10.45
2023-01-13T22:08:07.702Z,10.21
2023-01-13T22:10:35.166Z,10.86
2023-01-13T22:13:22.894Z,10.79
2023-01-13T22:15:50.106Z,11.00
2023-01-13T22:18:18.375Z,11.37
2023-01-13T22:20:46.173Z,10.75
2023-01-13T22:23:13.063Z,10.21
2023-01-13T22:25:39.926Z,10.83
2023-01-13T22:28:09.171Z,10.65
2023-01-13T22:30:36.453Z,11.18
2023-01-13T22:33:03.596Z,11.38
2023-01-13T22:35:30.523Z,10.91
2023-01-13T22:37:58.258Z,10.89
2023-01-13T22:40:25.218Z,11.39
2023-01-13T22:42:52.025Z,11.38
2023-01-13T22:45:18.968Z,10.97
2023-01-13T22:47:46.057Z,11.08
2023-01-13T22:50:12.971Z,11.65
2023-01-13T22:52:39.841Z,11.70
2023-01-13T22:55:07.583Z,11.33
2023-01-13T22:57:46.729Z,11.10
2023-01-13T23:00:15.221Z,10.68
2023-01-13T23:02:42.493Z,10.99
2023-01-13T23:05:09.389Z,10.37
2023-01-13T23:07:36.337Z,10.44
2023-01-13T23:10:04.176Z,10.85
2023-01-13T23:12:30.959Z,10.81
2023-01-13T23:14:57.863Z,10.71
2023-01-13T23:17:24.641Z,11.24
2023-01-13T23:19:51.271Z,11.55
2023-01-13T23:22:18.237Z,11.62
2023-01-13T23:24:45.748Z,11.82
2023-01-13T23:27:12.543Z,11.77
2023-01-13T23:29:39.315Z,11.94
2023-01-13T23:32:06.280Z,11.91
2023-01-13T23:34:33.102Z,11.93
2023-01-13T23:37:00.004Z,11.86
2023-01-13T23:39:26.946Z,11.71
2023-01-13T23:41:54.506Z,11.63
2023-01-13T23:44:21.194Z,11.70
2023-01-13T23:46:47.997Z,11.87
2023-01-13T23:49:14.729Z,11.62
2023-01-13T23:51:41.564Z,11.94
2023-01-13T23:54:08.299Z,11.90
2023-01-13T23:56:39.317Z,11.84
2023-01-13T23:59:06.563Z,11.89
